sensor_id;sensor_type;location;lat;lon;timestamp;P1;durP1;ratioP1;P2;durP2;ratioP2
4595;SDS011;2310;49.978;8.742;2023-04-03T00:00:38;6.20;;;4.67;;
4595;SDS011;2310;49.978;8.742;2023-04-03T00:04:40;5.47;;;3.00;;
4595;SDS011;2310;49.978;8.742;2023-04-03T00:08:42;6.40;;;3.60;;
4595;SDS011;2310;49.978;8.742;2023-04-03T00:12:43;8.43;;;3.70;;
4595;SDS011;2310;49.978;8.742;2023-04-03T00:16:44;5.40;;;3.40;;
4595;SDS011;2310;49.978;8.742;2023-04-03T00:20:46;6.00;;;4.40;;
4595;SDS011;2310;49.978;8.742;2023-04-03T00:24:48;9.57;;;5.07;;
4595;SDS011;2310;49.978;8.742;2023-04-03T00:28:49;9.60;;;6.60;;
4595;SDS011;2310;49.978;8.742;2023-04-03T00:32:51;7.77;;;5.60;;
4595;SDS011;2310;49.978;8.742;2023-04-03T00:36:53;8.57;;;4.50;;
4595;SDS011;2310;49.978;8.742;2023-04-03T00:40:55;9.27;;;6.10;;
4595;SDS011;2310;49.978;8.742;2023-04-03T00:49:01;13.67;;;8.37;;
4595;SDS011;2310;49.978;8.742;2023-04-03T00:53:03;9.93;;;5.90;;
4595;SDS011;2310;49.978;8.742;2023-04-03T00:57:06;8.77;;;3.30;;
4595;SDS011;2310;49.978;8.742;2023-04-03T01:01:10;7.63;;;3.57;;
4595;SDS011;2310;49.978;8.742;2023-04-03T01:05:13;5.67;;;3.23;;
4595;SDS011;2310;49.978;8.742;2023-04-03T01:09:17;6.37;;;3.50;;
4595;SDS011;2310;49.978;8.742;2023-04-03T01:13:20;6.90;;;2.90;;
4595;SDS011;2310;49.978;8.742;2023-04-03T01:17:31;4.93;;;3.40;;
4595;SDS011;2310;49.978;8.742;2023-04-03T01:21:43;4.13;;;3.10;;
4595;SDS011;2310;49.978;8.742;2023-04-03T01:25:46;5.33;;;2.97;;
4595;SDS011;2310;49.978;8.742;2023-04-03T01:29:50;6.03;;;3.23;;
4595;SDS011;2310;49.978;8.742;2023-04-03T01:33:51;4.70;;;2.60;;
4595;SDS011;2310;49.978;8.742;2023-04-03T01:37:53;5.90;;;3.10;;
4595;SDS011;2310;49.978;8.742;2023-04-03T01:41:54;4.33;;;2.80;;
4595;SDS011;2310;49.978;8.742;2023-04-03T01:45:55;4.53;;;3.10;;
4595;SDS011;2310;49.978;8.742;2023-04-03T01:49:56;5.70;;;3.80;;
4595;SDS011;2310;49.978;8.742;2023-04-03T01:53:58;6.60;;;3.40;;
4595;SDS011;2310;49.978;8.742;2023-04-03T01:57:59;7.27;;;4.37;;
4595;SDS011;2310;49.978;8.742;2023-04-03T02:02:00;9.77;;;5.47;;
4595;SDS011;2310;49.978;8.742;2023-04-03T02:06:01;7.50;;;4.50;;
4595;SDS011;2310;49.978;8.742;2023-04-03T02:10:03;3.53;;;2.57;;
4595;SDS011;2310;49.978;8.742;2023-04-03T02:14:04;6.73;;;3.40;;
4595;SDS011;2310;49.978;8.742;2023-04-03T02:18:06;6.60;;;3.63;;
4595;SDS011;2310;49.978;8.742;2023-04-03T02:22:08;6.40;;;3.83;;
4595;SDS011;2310;49.978;8.742;2023-04-03T02:26:11;7.93;;;4.17;;
4595;SDS011;2310;49.978;8.742;2023-04-03T02:30:14;13.80;;;4.00;;
4595;SDS011;2310;49.978;8.742;2023-04-03T02:34:16;6.93;;;4.40;;
4595;SDS011;2310;49.978;8.742;2023-04-03T02:38:17;7.27;;;5.70;;
4595;SDS011;2310;49.978;8.742;2023-04-03T02:42:18;10.00;;;6.63;;
4595;SDS011;2310;49.978;8.742;2023-04-03T02:46:20;11.60;;;6.57;;
4595;SDS011;2310;49.978;8.742;2023-04-03T02:50:21;12.20;;;7.30;;
4595;SDS011;2310;49.978;8.742;2023-04-03T02:54:22;7.10;;;4.70;;
4595;SDS011;2310;49.978;8.742;2023-04-03T02:58:25;6.70;;;5.20;;
4595;SDS011;2310;49.978;8.742;2023-04-03T03:02:26;7.60;;;5.17;;
4595;SDS011;2310;49.978;8.742;2023-04-03T03:06:27;6.20;;;3.90;;
4595;SDS011;2310;49.978;8.742;2023-04-03T03:10:28;6.63;;;4.53;;
4595;SDS011;2310;49.978;8.742;2023-04-03T03:14:30;6.80;;;4.70;;
4595;SDS011;2310;49.978;8.742;2023-04-03T03:18:31;8.40;;;4.63;;
4595;SDS011;2310;49.978;8.742;2023-04-03T03:22:32;6.20;;;4.10;;
4595;SDS011;2310;49.978;8.742;2023-04-03T03:26:34;6.73;;;4.07;;
4595;SDS011;2310;49.978;8.742;2023-04-03T03:30:36;7.07;;;4.67;;
4595;SDS011;2310;49.978;8.742;2023-04-03T03:34:37;11.43;;;5.83;;
4595;SDS011;2310;49.978;8.742;2023-04-03T03:38:39;6.20;;;4.47;;
4595;SDS011;2310;49.978;8.742;2023-04-03T03:42:40;6.83;;;4.13;;
4595;SDS011;2310;49.978;8.742;2023-04-03T03:46:41;4.87;;;3.80;;
4595;SDS011;2310;49.978;8.742;2023-04-03T03:50:42;5.03;;;3.13;;
4595;SDS011;2310;49.978;8.742;2023-04-03T03:54:44;4.43;;;2.80;;
4595;SDS011;2310;49.978;8.742;2023-04-03T03:58:45;5.40;;;3.43;;
4595;SDS011;2310;49.978;8.742;2023-04-03T04:02:46;6.03;;;2.83;;
4595;SDS011;2310;49.978;8.742;2023-04-03T04:06:47;4.27;;;2.90;;
4595;SDS011;2310;49.978;8.742;2023-04-03T04:10:48;7.50;;;3.07;;
4595;SDS011;2310;49.978;8.742;2023-04-03T04:14:50;6.30;;;4.00;;
4595;SDS011;2310;49.978;8.742;2023-04-03T04:18:51;9.63;;;3.90;;
4595;SDS011;2310;49.978;8.742;2023-04-03T04:22:52;6.80;;;3.90;;
4595;SDS011;2310;49.978;8.742;2023-04-03T04:26:53;5.80;;;3.37;;
4595;SDS011;2310;49.978;8.742;2023-04-03T04:30:54;4.30;;;1.97;;
4595;SDS011;2310;49.978;8.742;2023-04-03T04:34:55;5.87;;;2.13;;
4595;SDS011;2310;49.978;8.742;2023-04-03T04:38:57;5.93;;;3.30;;
4595;SDS011;2310;49.978;8.742;2023-04-03T04:42:59;8.67;;;2.87;;
4595;SDS011;2310;49.978;8.742;2023-04-03T04:47:00;5.60;;;2.67;;
4595;SDS011;2310;49.978;8.742;2023-04-03T04:51:01;5.97;;;3.30;;
4595;SDS011;2310;49.978;8.742;2023-04-03T04:55:04;8.30;;;3.20;;
4595;SDS011;2310;49.978;8.742;2023-04-03T04:59:06;6.47;;;3.03;;
4595;SDS011;2310;49.978;8.742;2023-04-03T05:03:07;4.23;;;2.70;;
4595;SDS011;2310;49.978;8.742;2023-04-03T05:07:08;6.43;;;3.53;;
4595;SDS011;2310;49.978;8.742;2023-04-03T05:11:10;5.97;;;3.40;;
4595;SDS011;2310;49.978;8.742;2023-04-03T05:15:11;6.53;;;4.20;;
4595;SDS011;2310;49.978;8.742;2023-04-03T05:19:12;5.90;;;2.40;;
4595;SDS011;2310;49.978;8.742;2023-04-03T05:23:13;5.50;;;2.57;;
4595;SDS011;2310;49.978;8.742;2023-04-03T05:27:15;7.73;;;3.00;;
4595;SDS011;2310;49.978;8.742;2023-04-03T05:31:16;4.73;;;2.20;;
4595;SDS011;2310;49.978;8.742;2023-04-03T05:35:17;7.10;;;3.90;;
4595;SDS011;2310;49.978;8.742;2023-04-03T05:39:18;6.63;;;3.30;;
4595;SDS011;2310;49.978;8.742;2023-04-03T05:43:19;6.07;;;2.70;;
4595;SDS011;2310;49.978;8.742;2023-04-03T05:47:21;6.93;;;3.40;;
4595;SDS011;2310;49.978;8.742;2023-04-03T05:51:23;6.10;;;3.33;;
4595;SDS011;2310;49.978;8.742;2023-04-03T05:55:29;5.10;;;2.80;;
4595;SDS011;2310;49.978;8.742;2023-04-03T05:59:30;4.03;;;2.67;;
4595;SDS011;2310;49.978;8.742;2023-04-03T06:03:31;10.87;;;3.20;;
4595;SDS011;2310;49.978;8.742;2023-04-03T06:07:33;6.13;;;3.17;;
4595;SDS011;2310;49.978;8.742;2023-04-03T06:11:34;5.00;;;3.10;;
4595;SDS011;2310;49.978;8.742;2023-04-03T06:15:36;5.50;;;2.97;;
4595;SDS011;2310;49.978;8.742;2023-04-03T06:19:38;4.30;;;2.93;;
4595;SDS011;2310;49.978;8.742;2023-04-03T06:23:40;7.33;;;3.40;;
4595;SDS011;2310;49.978;8.742;2023-04-03T06:27:41;6.60;;;3.53;;
4595;SDS011;2310;49.978;8.742;2023-04-03T06:31:42;6.20;;;3.00;;
4595;SDS011;2310;49.978;8.742;2023-04-03T06:35:44;5.97;;;3.67;;
4595;SDS011;2310;49.978;8.742;2023-04-03T06:39:46;9.40;;;3.17;;
4595;SDS011;2310;49.978;8.742;2023-04-03T06:43:47;5.97;;;2.90;;
4595;SDS011;2310;49.978;8.742;2023-04-03T06:47:49;5.10;;;2.70;;
4595;SDS011;2310;49.978;8.742;2023-04-03T06:51:50;10.53;;;3.80;;
4595;SDS011;2310;49.978;8.742;2023-04-03T06:55:52;6.90;;;3.23;;
4595;SDS011;2310;49.978;8.742;2023-04-03T06:59:53;5.90;;;3.53;;
4595;SDS011;2310;49.978;8.742;2023-04-03T07:03:55;8.57;;;2.93;;
4595;SDS011;2310;49.978;8.742;2023-04-03T07:07:57;6.47;;;3.10;;
4595;SDS011;2310;49.978;8.742;2023-04-03T07:11:58;8.50;;;3.87;;
4595;SDS011;2310;49.978;8.742;2023-04-03T07:16:01;7.87;;;3.93;;
4595;SDS011;2310;49.978;8.742;2023-04-03T07:20:04;5.40;;;3.20;;
4595;SDS011;2310;49.978;8.742;2023-04-03T07:24:07;6.57;;;3.30;;
4595;SDS011;2310;49.978;8.742;2023-04-03T07:28:10;7.90;;;4.83;;
4595;SDS011;2310;49.978;8.742;2023-04-03T07:32:12;4.63;;;3.30;;
4595;SDS011;2310;49.978;8.742;2023-04-03T07:36:17;8.53;;;3.10;;
4595;SDS011;2310;49.978;8.742;2023-04-03T07:40:20;5.60;;;2.40;;
4595;SDS011;2310;49.978;8.742;2023-04-03T07:44:23;8.17;;;3.47;;
4595;SDS011;2310;49.978;8.742;2023-04-03T07:48:25;4.93;;;3.13;;
4595;SDS011;2310;49.978;8.742;2023-04-03T07:52:27;8.20;;;3.73;;
4595;SDS011;2310;49.978;8.742;2023-04-03T07:56:28;6.80;;;3.00;;
4595;SDS011;2310;49.978;8.742;2023-04-03T08:00:29;4.93;;;2.73;;
4595;SDS011;2310;49.978;8.742;2023-04-03T08:04:30;4.30;;;2.90;;
4595;SDS011;2310;49.978;8.742;2023-04-03T08:08:32;3.57;;;2.20;;
4595;SDS011;2310;49.978;8.742;2023-04-03T08:12:33;7.03;;;3.03;;
4595;SDS011;2310;49.978;8.742;2023-04-03T08:16:35;5.33;;;2.97;;
4595;SDS011;2310;49.978;8.742;2023-04-03T08:20:37;5.83;;;3.60;;
4595;SDS011;2310;49.978;8.742;2023-04-03T08:24:39;4.87;;;3.20;;
4595;SDS011;2310;49.978;8.742;2023-04-03T08:28:42;4.10;;;2.73;;
4595;SDS011;2310;49.978;8.742;2023-04-03T08:32:43;4.60;;;2.90;;
4595;SDS011;2310;49.978;8.742;2023-04-03T08:36:45;4.03;;;2.10;;
4595;SDS011;2310;49.978;8.742;2023-04-03T08:40:46;4.10;;;2.70;;
4595;SDS011;2310;49.978;8.742;2023-04-03T08:44:52;5.73;;;2.63;;
4595;SDS011;2310;49.978;8.742;2023-04-03T08:49:11;3.67;;;2.37;;
4595;SDS011;2310;49.978;8.742;2023-04-03T08:53:16;7.07;;;3.57;;
4595;SDS011;2310;49.978;8.742;2023-04-03T08:57:26;5.10;;;2.90;;
4595;SDS011;2310;49.978;8.742;2023-04-03T09:01:30;5.20;;;2.03;;
4595;SDS011;2310;49.978;8.742;2023-04-03T09:10:03;6.13;;;2.70;;
4595;SDS011;2310;49.978;8.742;2023-04-03T09:18:32;5.77;;;3.20;;
4595;SDS011;2310;49.978;8.742;2023-04-03T09:22:41;6.40;;;3.53;;
4595;SDS011;2310;49.978;8.742;2023-04-03T09:30:51;4.10;;;2.20;;
4595;SDS011;2310;49.978;8.742;2023-04-03T09:34:52;3.87;;;2.40;;
4595;SDS011;2310;49.978;8.742;2023-04-03T09:39:02;4.77;;;2.83;;
4595;SDS011;2310;49.978;8.742;2023-04-03T09:47:31;7.93;;;2.50;;
4595;SDS011;2310;49.978;8.742;2023-04-03T09:51:36;6.00;;;2.90;;
4595;SDS011;2310;49.978;8.742;2023-04-03T09:55:41;7.17;;;3.00;;
4595;SDS011;2310;49.978;8.742;2023-04-03T09:59:56;5.93;;;2.30;;
4595;SDS011;2310;49.978;8.742;2023-04-03T10:04:02;4.73;;;2.20;;
4595;SDS011;2310;49.978;8.742;2023-04-03T10:12:17;6.10;;;2.50;;
4595;SDS011;2310;49.978;8.742;2023-04-03T10:16:23;6.67;;;2.50;;
4595;SDS011;2310;49.978;8.742;2023-04-03T10:20:37;4.20;;;1.80;;
4595;SDS011;2310;49.978;8.742;2023-04-03T10:33:45;4.13;;;2.03;;
4595;SDS011;2310;49.978;8.742;2023-04-03T10:42:55;4.80;;;3.10;;
4595;SDS011;2310;49.978;8.742;2023-04-03T10:46:28;7.43;;;2.33;;
4595;SDS011;2310;49.978;8.742;2023-04-03T10:54:49;4.67;;;2.63;;
4595;SDS011;2310;49.978;8.742;2023-04-03T10:58:49;4.57;;;2.60;;
4595;SDS011;2310;49.978;8.742;2023-04-03T11:02:56;6.17;;;2.47;;
4595;SDS011;2310;49.978;8.742;2023-04-03T11:07:02;5.70;;;2.60;;
4595;SDS011;2310;49.978;8.742;2023-04-03T11:11:26;6.30;;;2.40;;
4595;SDS011;2310;49.978;8.742;2023-04-03T11:15:30;5.80;;;2.97;;
4595;SDS011;2310;49.978;8.742;2023-04-03T11:19:49;6.30;;;3.20;;
4595;SDS011;2310;49.978;8.742;2023-04-03T11:24:01;5.30;;;2.30;;
4595;SDS011;2310;49.978;8.742;2023-04-03T11:28:06;4.40;;;2.73;;
4595;SDS011;2310;49.978;8.742;2023-04-03T11:36:27;5.20;;;2.57;;
4595;SDS011;2310;49.978;8.742;2023-04-03T11:40:33;3.77;;;2.43;;
4595;SDS011;2310;49.978;8.742;2023-04-03T11:44:38;3.90;;;2.67;;
4595;SDS011;2310;49.978;8.742;2023-04-03T11:56:52;5.33;;;2.80;;
4595;SDS011;2310;49.978;8.742;2023-04-03T12:00:55;6.80;;;1.83;;
4595;SDS011;2310;49.978;8.742;2023-04-03T12:17:57;4.40;;;2.03;;
4595;SDS011;2310;49.978;8.742;2023-04-03T12:26:08;3.43;;;2.17;;
4595;SDS011;2310;49.978;8.742;2023-04-03T12:30:29;4.63;;;3.00;;
4595;SDS011;2310;49.978;8.742;2023-04-03T12:34:38;4.90;;;2.53;;
4595;SDS011;2310;49.978;8.742;2023-04-03T12:38:40;4.73;;;2.93;;
4595;SDS011;2310;49.978;8.742;2023-04-03T12:42:52;3.47;;;1.87;;
4595;SDS011;2310;49.978;8.742;2023-04-03T12:46:51;4.70;;;2.20;;
4595;SDS011;2310;49.978;8.742;2023-04-03T12:50:53;4.20;;;2.40;;
4595;SDS011;2310;49.978;8.742;2023-04-03T12:54:56;6.73;;;2.67;;
4595;SDS011;2310;49.978;8.742;2023-04-03T13:03:25;4.40;;;2.27;;
4595;SDS011;2310;49.978;8.742;2023-04-03T13:07:34;3.50;;;2.53;;
4595;SDS011;2310;49.978;8.742;2023-04-03T13:11:39;3.93;;;2.83;;
4595;SDS011;2310;49.978;8.742;2023-04-03T13:15:44;6.90;;;2.93;;
4595;SDS011;2310;49.978;8.742;2023-04-03T13:19:47;4.67;;;2.53;;
4595;SDS011;2310;49.978;8.742;2023-04-03T13:23:49;4.30;;;2.20;;
4595;SDS011;2310;49.978;8.742;2023-04-03T13:27:54;4.30;;;2.60;;
4595;SDS011;2310;49.978;8.742;2023-04-03T13:31:58;5.17;;;3.07;;
4595;SDS011;2310;49.978;8.742;2023-04-03T13:36:03;4.63;;;2.60;;
4595;SDS011;2310;49.978;8.742;2023-04-03T13:48:21;4.10;;;2.83;;
4595;SDS011;2310;49.978;8.742;2023-04-03T13:52:33;4.77;;;2.90;;
4595;SDS011;2310;49.978;8.742;2023-04-03T13:56:38;4.13;;;2.70;;
4595;SDS011;2310;49.978;8.742;2023-04-03T14:04:58;4.67;;;3.03;;
4595;SDS011;2310;49.978;8.742;2023-04-03T14:09:02;5.40;;;3.50;;
4595;SDS011;2310;49.978;8.742;2023-04-03T14:13:04;9.47;;;7.70;;
4595;SDS011;2310;49.978;8.742;2023-04-03T14:17:18;5.40;;;3.43;;
4595;SDS011;2310;49.978;8.742;2023-04-03T14:21:24;7.50;;;3.90;;
4595;SDS011;2310;49.978;8.742;2023-04-03T14:25:25;7.03;;;5.20;;
4595;SDS011;2310;49.978;8.742;2023-04-03T14:29:27;6.10;;;3.80;;
4595;SDS011;2310;49.978;8.742;2023-04-03T14:33:28;5.67;;;3.60;;
4595;SDS011;2310;49.978;8.742;2023-04-03T14:37:32;5.97;;;3.70;;
4595;SDS011;2310;49.978;8.742;2023-04-03T14:41:34;5.40;;;3.00;;
4595;SDS011;2310;49.978;8.742;2023-04-03T14:45:36;5.43;;;3.90;;
4595;SDS011;2310;49.978;8.742;2023-04-03T14:49:37;4.57;;;3.20;;
4595;SDS011;2310;49.978;8.742;2023-04-03T14:53:40;5.43;;;3.10;;
4595;SDS011;2310;49.978;8.742;2023-04-03T14:57:42;4.83;;;2.90;;
4595;SDS011;2310;49.978;8.742;2023-04-03T15:01:45;6.30;;;4.00;;
4595;SDS011;2310;49.978;8.742;2023-04-03T15:05:47;4.20;;;2.53;;
4595;SDS011;2310;49.978;8.742;2023-04-03T15:09:49;5.50;;;2.90;;
4595;SDS011;2310;49.978;8.742;2023-04-03T15:13:51;4.60;;;3.30;;
4595;SDS011;2310;49.978;8.742;2023-04-03T15:17:53;6.40;;;2.83;;
4595;SDS011;2310;49.978;8.742;2023-04-03T15:21:55;6.33;;;2.27;;
4595;SDS011;2310;49.978;8.742;2023-04-03T15:25:57;4.43;;;2.73;;
4595;SDS011;2310;49.978;8.742;2023-04-03T15:29:58;5.53;;;2.93;;
4595;SDS011;2310;49.978;8.742;2023-04-03T15:33:59;8.67;;;2.63;;
4595;SDS011;2310;49.978;8.742;2023-04-03T15:38:01;4.40;;;2.13;;
4595;SDS011;2310;49.978;8.742;2023-04-03T15:42:02;5.20;;;2.90;;
4595;SDS011;2310;49.978;8.742;2023-04-03T15:46:09;5.50;;;3.77;;
4595;SDS011;2310;49.978;8.742;2023-04-03T15:50:10;4.60;;;2.60;;
4595;SDS011;2310;49.978;8.742;2023-04-03T15:54:12;6.70;;;3.53;;
4595;SDS011;2310;49.978;8.742;2023-04-03T15:58:13;4.70;;;2.13;;
4595;SDS011;2310;49.978;8.742;2023-04-03T16:02:19;4.70;;;2.70;;
4595;SDS011;2310;49.978;8.742;2023-04-03T16:06:18;8.13;;;4.93;;
4595;SDS011;2310;49.978;8.742;2023-04-03T16:10:21;7.60;;;3.90;;
4595;SDS011;2310;49.978;8.742;2023-04-03T16:14:23;3.20;;;1.73;;
4595;SDS011;2310;49.978;8.742;2023-04-03T16:18:24;5.60;;;1.90;;
4595;SDS011;2310;49.978;8.742;2023-04-03T16:22:27;4.13;;;1.60;;
4595;SDS011;2310;49.978;8.742;2023-04-03T16:26:31;3.97;;;1.60;;
4595;SDS011;2310;49.978;8.742;2023-04-03T16:30:33;5.13;;;3.10;;
4595;SDS011;2310;49.978;8.742;2023-04-03T16:34:34;3.80;;;1.70;;
4595;SDS011;2310;49.978;8.742;2023-04-03T16:38:36;4.60;;;1.80;;
4595;SDS011;2310;49.978;8.742;2023-04-03T16:42:41;3.70;;;1.90;;
4595;SDS011;2310;49.978;8.742;2023-04-03T16:46:43;5.30;;;2.70;;
4595;SDS011;2310;49.978;8.742;2023-04-03T16:50:46;3.80;;;1.97;;
4595;SDS011;2310;49.978;8.742;2023-04-03T16:54:50;3.10;;;1.93;;
4595;SDS011;2310;49.978;8.742;2023-04-03T16:58:53;4.30;;;2.20;;
4595;SDS011;2310;49.978;8.742;2023-04-03T17:02:55;6.03;;;2.80;;
4595;SDS011;2310;49.978;8.742;2023-04-03T17:06:57;3.90;;;2.23;;
4595;SDS011;2310;49.978;8.742;2023-04-03T17:11:01;7.07;;;2.80;;
4595;SDS011;2310;49.978;8.742;2023-04-03T17:15:03;4.23;;;1.83;;
4595;SDS011;2310;49.978;8.742;2023-04-03T17:19:05;3.83;;;1.80;;
4595;SDS011;2310;49.978;8.742;2023-04-03T17:23:07;5.80;;;2.30;;
4595;SDS011;2310;49.978;8.742;2023-04-03T17:27:09;4.83;;;2.13;;
4595;SDS011;2310;49.978;8.742;2023-04-03T17:31:11;5.43;;;2.77;;
4595;SDS011;2310;49.978;8.742;2023-04-03T17:35:13;4.50;;;2.10;;
4595;SDS011;2310;49.978;8.742;2023-04-03T17:39:14;4.20;;;2.90;;
4595;SDS011;2310;49.978;8.742;2023-04-03T17:43:16;3.80;;;2.00;;
4595;SDS011;2310;49.978;8.742;2023-04-03T17:47:18;4.10;;;2.83;;
4595;SDS011;2310;49.978;8.742;2023-04-03T17:51:21;6.90;;;4.40;;
4595;SDS011;2310;49.978;8.742;2023-04-03T17:55:23;5.70;;;2.50;;
4595;SDS011;2310;49.978;8.742;2023-04-03T17:59:25;4.47;;;2.23;;
4595;SDS011;2310;49.978;8.742;2023-04-03T18:03:26;5.00;;;2.37;;
4595;SDS011;2310;49.978;8.742;2023-04-03T18:07:27;5.87;;;2.97;;
4595;SDS011;2310;49.978;8.742;2023-04-03T18:11:29;6.30;;;2.30;;
4595;SDS011;2310;49.978;8.742;2023-04-03T18:15:30;7.73;;;3.03;;
4595;SDS011;2310;49.978;8.742;2023-04-03T18:19:35;5.60;;;2.47;;
4595;SDS011;2310;49.978;8.742;2023-04-03T18:23:38;6.17;;;3.40;;
4595;SDS011;2310;49.978;8.742;2023-04-03T18:27:42;5.27;;;3.27;;
4595;SDS011;2310;49.978;8.742;2023-04-03T18:31:45;5.13;;;3.37;;
4595;SDS011;2310;49.978;8.742;2023-04-03T18:35:49;5.23;;;3.30;;
4595;SDS011;2310;49.978;8.742;2023-04-03T18:39:51;5.50;;;2.80;;
4595;SDS011;2310;49.978;8.742;2023-04-03T18:43:54;3.80;;;2.60;;
4595;SDS011;2310;49.978;8.742;2023-04-03T18:47:57;5.73;;;1.83;;
4595;SDS011;2310;49.978;8.742;2023-04-03T18:51:59;5.33;;;2.67;;
4595;SDS011;2310;49.978;8.742;2023-04-03T18:56:00;4.83;;;2.40;;
4595;SDS011;2310;49.978;8.742;2023-04-03T19:00:02;4.77;;;2.47;;
4595;SDS011;2310;49.978;8.742;2023-04-03T19:04:04;6.37;;;2.77;;
4595;SDS011;2310;49.978;8.742;2023-04-03T19:08:08;5.13;;;2.97;;
4595;SDS011;2310;49.978;8.742;2023-04-03T19:12:09;5.50;;;2.57;;
4595;SDS011;2310;49.978;8.742;2023-04-03T19:16:11;4.70;;;2.73;;
4595;SDS011;2310;49.978;8.742;2023-04-03T19:20:14;5.23;;;2.00;;
4595;SDS011;2310;49.978;8.742;2023-04-03T19:24:16;5.23;;;2.87;;
4595;SDS011;2310;49.978;8.742;2023-04-03T19:28:18;10.00;;;4.60;;
4595;SDS011;2310;49.978;8.742;2023-04-03T19:32:20;6.60;;;3.30;;
4595;SDS011;2310;49.978;8.742;2023-04-03T19:36:22;5.00;;;2.47;;
4595;SDS011;2310;49.978;8.742;2023-04-03T19:40:24;9.33;;;2.80;;
4595;SDS011;2310;49.978;8.742;2023-04-03T19:44:27;4.87;;;2.33;;
4595;SDS011;2310;49.978;8.742;2023-04-03T19:48:32;3.87;;;2.00;;
4595;SDS011;2310;49.978;8.742;2023-04-03T19:52:33;3.77;;;1.80;;
4595;SDS011;2310;49.978;8.742;2023-04-03T19:56:36;4.60;;;2.60;;
4595;SDS011;2310;49.978;8.742;2023-04-03T20:00:40;4.00;;;2.20;;
4595;SDS011;2310;49.978;8.742;2023-04-03T20:04:42;4.90;;;2.27;;
4595;SDS011;2310;49.978;8.742;2023-04-03T20:08:45;3.90;;;1.67;;
4595;SDS011;2310;49.978;8.742;2023-04-03T20:12:47;4.70;;;1.93;;
4595;SDS011;2310;49.978;8.742;2023-04-03T20:16:53;6.93;;;2.73;;
4595;SDS011;2310;49.978;8.742;2023-04-03T20:21:00;6.70;;;3.03;;
4595;SDS011;2310;49.978;8.742;2023-04-03T20:25:03;5.30;;;2.40;;
4595;SDS011;2310;49.978;8.742;2023-04-03T20:29:07;7.00;;;3.67;;
4595;SDS011;2310;49.978;8.742;2023-04-03T20:33:09;7.67;;;3.90;;
4595;SDS011;2310;49.978;8.742;2023-04-03T20:37:11;6.80;;;3.07;;
4595;SDS011;2310;49.978;8.742;2023-04-03T20:41:14;4.63;;;2.27;;
4595;SDS011;2310;49.978;8.742;2023-04-03T20:45:16;5.30;;;2.07;;
4595;SDS011;2310;49.978;8.742;2023-04-03T20:49:18;8.30;;;4.40;;
4595;SDS011;2310;49.978;8.742;2023-04-03T20:53:21;8.90;;;4.13;;
4595;SDS011;2310;49.978;8.742;2023-04-03T20:57:23;5.37;;;2.93;;
4595;SDS011;2310;49.978;8.742;2023-04-03T21:01:24;5.50;;;3.67;;
4595;SDS011;2310;49.978;8.742;2023-04-03T21:05:28;8.70;;;3.63;;
4595;SDS011;2310;49.978;8.742;2023-04-03T21:22:56;4.67;;;3.43;;
4595;SDS011;2310;49.978;8.742;2023-04-03T21:26:57;4.50;;;2.27;;
4595;SDS011;2310;49.978;8.742;2023-04-03T21:30:58;6.57;;;3.10;;
4595;SDS011;2310;49.978;8.742;2023-04-03T21:34:59;4.60;;;2.40;;
4595;SDS011;2310;49.978;8.742;2023-04-03T21:39:01;4.20;;;2.27;;
4595;SDS011;2310;49.978;8.742;2023-04-03T21:43:02;6.43;;;2.80;;
4595;SDS011;2310;49.978;8.742;2023-04-03T21:47:04;4.83;;;2.50;;
4595;SDS011;2310;49.978;8.742;2023-04-03T21:51:06;8.43;;;2.70;;
4595;SDS011;2310;49.978;8.742;2023-04-03T21:55:08;4.77;;;2.00;;
4595;SDS011;2310;49.978;8.742;2023-04-03T21:59:09;5.37;;;2.70;;
4595;SDS011;2310;49.978;8.742;2023-04-03T22:03:11;4.97;;;2.47;;
4595;SDS011;2310;49.978;8.742;2023-04-03T22:07:15;5.30;;;2.63;;
4595;SDS011;2310;49.978;8.742;2023-04-03T22:11:16;5.80;;;1.90;;
4595;SDS011;2310;49.978;8.742;2023-04-03T22:15:18;4.73;;;2.20;;
4595;SDS011;2310;49.978;8.742;2023-04-03T22:19:19;4.30;;;2.67;;
4595;SDS011;2310;49.978;8.742;2023-04-03T22:23:21;3.43;;;1.73;;
4595;SDS011;2310;49.978;8.742;2023-04-03T22:27:22;15.20;;;3.57;;
4595;SDS011;2310;49.978;8.742;2023-04-03T22:31:23;5.80;;;2.00;;
4595;SDS011;2310;49.978;8.742;2023-04-03T22:35:24;4.23;;;2.30;;
4595;SDS011;2310;49.978;8.742;2023-04-03T22:39:27;5.70;;;2.37;;
4595;SDS011;2310;49.978;8.742;2023-04-03T22:43:29;4.53;;;2.40;;
4595;SDS011;2310;49.978;8.742;2023-04-03T22:47:32;5.80;;;2.80;;
4595;SDS011;2310;49.978;8.742;2023-04-03T22:51:33;6.33;;;2.37;;
4595;SDS011;2310;49.978;8.742;2023-04-03T22:55:34;4.97;;;2.63;;
4595;SDS011;2310;49.978;8.742;2023-04-03T22:59:36;4.20;;;2.73;;
4595;SDS011;2310;49.978;8.742;2023-04-03T23:03:37;8.07;;;2.93;;
4595;SDS011;2310;49.978;8.742;2023-04-03T23:07:40;4.97;;;2.73;;
4595;SDS011;2310;49.978;8.742;2023-04-03T23:11:41;6.67;;;3.80;;
4595;SDS011;2310;49.978;8.742;2023-04-03T23:15:43;5.60;;;2.90;;
4595;SDS011;2310;49.978;8.742;2023-04-03T23:19:44;6.80;;;2.90;;
4595;SDS011;2310;49.978;8.742;2023-04-03T23:23:45;4.97;;;3.20;;
4595;SDS011;2310;49.978;8.742;2023-04-03T23:27:50;7.10;;;3.47;;
4595;SDS011;2310;49.978;8.742;2023-04-03T23:31:54;6.17;;;2.80;;
4595;SDS011;2310;49.978;8.742;2023-04-03T23:35:56;7.27;;;2.80;;
4595;SDS011;2310;49.978;8.742;2023-04-03T23:39:58;4.63;;;2.83;;
4595;SDS011;2310;49.978;8.742;2023-04-03T23:44:01;6.03;;;2.77;;
4595;SDS011;2310;49.978;8.742;2023-04-03T23:48:02;5.50;;;3.60;;
4595;SDS011;2310;49.978;8.742;2023-04-03T23:52:04;5.60;;;3.20;;
4595;SDS011;2310;49.978;8.742;2023-04-03T23:56:05;4.00;;;2.80;;
